Terminal Aerodrome Forecast
Issued by NWS

Home | Current Version | Previous Version | Text Only | Print | Product List | Glossary On
Versions: 1 2 3 4 5 6 7 8 9 10 11 12 13 14 15 16 17 18 19 20 21 22 23 24 25 26 27 28 29 30 31 32 33 34 35 36 37 38 39 40 41 42 43 44 45 46 47 48 49 50
284
FTUS41 KCTP 200003 RRA
TAFBFD
TAF
KBFD 200003Z 2000/2024 18007KT 5SM -RA BR OVC004 WS020/24050KT
     FM201500 21010G18KT P6SM OVC007 WS020/24052KT
     FM202200 21010G17KT P6SM OVC050=

USA.gov is the U.S. government's official web portal to all federal, state and local government web resources and services.